createdAt,value
2023-03-16T00:01:47.307Z,5.03
2023-03-16T00:04:50.743Z,4.77
2023-03-16T00:07:53.863Z,4.93
2023-03-16T00:10:57.178Z,5.00
2023-03-16T00:14:04.209Z,4.73
2023-03-16T00:17:07.503Z,5.03
2023-03-16T00:20:13.872Z,5.47
2023-03-16T00:23:17.123Z,4.63
2023-03-16T00:26:20.512Z,4.83
2023-03-16T00:29:25.123Z,4.57
2023-03-16T00:32:30.437Z,4.83
2023-03-16T00:35:35.960Z,5.10
2023-03-16T00:38:45.037Z,4.70
2023-03-16T00:41:48.365Z,4.50
2023-03-16T00:44:57.176Z,4.93
2023-03-16T00:48:00.156Z,4.97
2023-03-16T00:51:04.412Z,5.27
2023-03-16T00:54:09.505Z,4.50
2023-03-16T00:57:13.852Z,4.37
2023-03-16T01:00:20.946Z,5.23
2023-03-16T01:03:24.498Z,4.50
2023-03-16T01:06:27.883Z,4.73
2023-03-16T01:09:31.068Z,4.77
2023-03-16T01:12:34.202Z,5.43
2023-03-16T01:15:38.964Z,4.27
2023-03-16T01:18:42.641Z,4.53
2023-03-16T01:21:46.103Z,4.77
2023-03-16T01:24:49.186Z,4.40
2023-03-16T01:27:53.772Z,4.93
2023-03-16T01:31:05.572Z,4.43
2023-03-16T01:34:08.868Z,4.90
2023-03-16T01:37:14.187Z,4.57
2023-03-16T01:40:17.668Z,4.40
2023-03-16T01:43:21.942Z,4.67
2023-03-16T01:46:27.840Z,4.67
2023-03-16T01:49:33.306Z,4.53
2023-03-16T01:52:38.604Z,4.77
2023-03-16T01:55:43.865Z,4.50
2023-03-16T01:58:48.327Z,5.10
2023-03-16T02:01:56.276Z,5.00
2023-03-16T02:05:03.772Z,5.47
2023-03-16T02:08:10.677Z,4.17
2023-03-16T02:11:18.676Z,5.67
2023-03-16T02:14:24.440Z,4.83
2023-03-16T02:17:32.137Z,4.53
2023-03-16T02:20:43.776Z,5.83
2023-03-16T02:23:47.282Z,4.17
2023-03-16T02:26:56.189Z,5.47
2023-03-16T02:30:09.084Z,5.23
2023-03-16T02:33:14.207Z,4.87
2023-03-16T02:36:19.791Z,4.43
2023-03-16T02:39:23.494Z,4.63
2023-03-16T02:42:27.936Z,4.57
2023-03-16T02:45:36.593Z,4.53
2023-03-16T02:48:45.382Z,5.03
2023-03-16T02:51:48.882Z,4.60
2023-03-16T02:54:52.033Z,4.57
2023-03-16T02:57:55.222Z,4.90
2023-03-16T03:01:00.402Z,4.40
2023-03-16T03:04:03.799Z,5.17
2023-03-16T03:07:07.307Z,4.73
2023-03-16T03:10:11.530Z,5.13
2023-03-16T03:13:14.687Z,4.90
2023-03-16T03:16:21.382Z,4.90
2023-03-16T03:19:24.553Z,5.60
2023-03-16T03:22:29.323Z,4.33
2023-03-16T03:25:35.758Z,5.13
2023-03-16T03:28:38.921Z,4.90
2023-03-16T03:31:43.882Z,4.30
2023-03-16T03:34:47.032Z,4.57
2023-03-16T03:37:50.770Z,4.93
2023-03-16T03:40:55.069Z,5.40
2023-03-16T03:43:58.180Z,5.00
2023-03-16T03:47:05.917Z,4.53
2023-03-16T03:50:10.940Z,4.80
2023-03-16T03:53:14.268Z,4.83
2023-03-16T03:56:17.336Z,4.30
2023-03-16T03:59:20.398Z,5.17
2023-03-16T04:02:25.111Z,4.53
2023-03-16T04:05:28.813Z,5.10
2023-03-16T04:08:31.908Z,4.70
2023-03-16T04:11:35.246Z,5.00
2023-03-16T04:14:38.873Z,4.80
2023-03-16T04:17:43.532Z,4.97
2023-03-16T04:20:47.172Z,5.07
2023-03-16T04:23:54.511Z,5.10
2023-03-16T04:26:57.951Z,5.50
2023-03-16T04:30:00.973Z,5.07
2023-03-16T04:33:05.927Z,5.27
2023-03-16T04:36:10.258Z,5.50
2023-03-16T04:39:13.767Z,4.97
2023-03-16T04:42:17.158Z,5.60
2023-03-16T04:45:21.156Z,5.63
2023-03-16T04:48:25.894Z,5.47
2023-03-16T04:51:30.036Z,5.83
2023-03-16T04:54:33.336Z,5.77
2023-03-16T04:57:36.444Z,5.73
2023-03-16T05:00:39.432Z,5.40
2023-03-16T05:03:44.827Z,5.53
2023-03-16T05:06:47.763Z,5.80
2023-03-16T05:09:50.709Z,6.87
2023-03-16T05:12:53.646Z,5.73
2023-03-16T05:15:56.805Z,6.17
2023-03-16T05:19:01.990Z,5.93
2023-03-16T05:22:05.026Z,6.33
2023-03-16T05:25:08.851Z,6.80
2023-03-16T05:28:12.528Z,6.37
2023-03-16T05:31:15.680Z,6.33
2023-03-16T05:34:20.198Z,6.43
2023-03-16T05:37:24.140Z,6.50
2023-03-16T05:40:28.161Z,6.73
2023-03-16T05:43:31.750Z,6.30
2023-03-16T05:46:34.842Z,6.23
2023-03-16T05:49:39.462Z,6.43
2023-03-16T05:52:42.537Z,5.97
2023-03-16T05:55:45.690Z,7.03
2023-03-16T05:58:48.720Z,6.77
2023-03-16T06:01:51.687Z,6.87
2023-03-16T06:04:56.047Z,6.70
2023-03-16T06:07:59.096Z,6.40
2023-03-16T06:11:02.299Z,6.77
2023-03-16T06:14:05.296Z,5.80
2023-03-16T06:17:08.373Z,7.13
2023-03-16T06:20:14.851Z,6.10
2023-03-16T06:23:20.197Z,6.17
2023-03-16T06:26:23.211Z,5.70
2023-03-16T06:29:26.546Z,6.60
2023-03-16T06:32:29.528Z,6.33
2023-03-16T06:35:34.416Z,7.23
2023-03-16T06:38:37.534Z,7.33
2023-03-16T06:41:42.631Z,6.90
2023-03-16T06:44:45.850Z,6.50
2023-03-16T06:47:49.202Z,7.27
2023-03-16T06:50:53.802Z,6.60
2023-03-16T06:53:56.838Z,6.77
2023-03-16T06:57:00.088Z,6.80
2023-03-16T07:00:04.422Z,6.43
2023-03-16T07:03:07.651Z,5.97
2023-03-16T07:06:12.280Z,6.80
2023-03-16T07:09:15.338Z,6.53
2023-03-16T07:12:18.429Z,7.10
2023-03-16T07:15:21.924Z,6.90
2023-03-16T07:18:26.176Z,6.57
2023-03-16T07:21:32.143Z,7.03
2023-03-16T07:24:35.292Z,6.93
2023-03-16T07:27:38.682Z,6.07
2023-03-16T07:30:50.560Z,6.00
2023-03-16T07:34:05.175Z,5.40
2023-03-16T07:37:10.087Z,5.50
2023-03-16T07:40:14.377Z,4.90
2023-03-16T07:43:17.465Z,5.33
2023-03-16T07:46:21.000Z,5.10
2023-03-16T07:49:24.317Z,5.03
2023-03-16T07:52:29.126Z,6.07
2023-03-16T07:55:32.494Z,5.57
2023-03-16T07:58:35.575Z,5.23
2023-03-16T08:01:38.753Z,5.70
2023-03-16T08:04:44.411Z,5.77
2023-03-16T08:07:48.997Z,5.70
2023-03-16T08:10:55.573Z,5.30
2023-03-16T08:14:02.421Z,5.80
2023-03-16T08:17:07.259Z,4.77
2023-03-16T08:20:15.050Z,4.93
2023-03-16T08:23:20.256Z,4.70
2023-03-16T08:26:24.576Z,4.70
2023-03-16T08:29:28.040Z,5.00
2023-03-16T08:32:31.262Z,4.10
2023-03-16T08:35:34.544Z,5.13
2023-03-16T08:38:39.938Z,4.13
2023-03-16T08:41:43.127Z,3.70
2023-03-16T08:44:47.755Z,4.47
2023-03-16T08:47:51.163Z,4.00
2023-03-16T08:50:54.194Z,3.97
2023-03-16T08:53:59.685Z,3.83
2023-03-16T08:57:02.924Z,4.00
2023-03-16T09:00:13.024Z,3.83
2023-03-16T09:03:16.641Z,5.00
2023-03-16T09:06:20.223Z,3.77
2023-03-16T09:09:24.796Z,3.80
2023-03-16T09:12:27.919Z,4.03
2023-03-16T09:15:31.451Z,3.87
2023-03-16T09:18:35.397Z,3.83
2023-03-16T09:21:38.451Z,3.67
2023-03-16T09:24:42.821Z,3.70
2023-03-16T09:27:46.685Z,3.50
2023-03-16T09:30:50.076Z,4.00
2023-03-16T09:33:53.251Z,3.77
2023-03-16T09:36:56.540Z,3.43
2023-03-16T09:40:06.779Z,3.30
2023-03-16T09:43:29.846Z,3.57
2023-03-16T09:46:36.252Z,3.10
2023-03-16T09:49:46.200Z,4.13
2023-03-16T09:53:06.012Z,3.40
2023-03-16T09:56:13.703Z,3.30
2023-03-16T09:59:19.098Z,3.67
2023-03-16T10:02:51.665Z,3.53
2023-03-16T10:06:00.834Z,3.30
2023-03-16T10:09:16.149Z,3.10
2023-03-16T10:12:23.396Z,3.40
2023-03-16T10:15:30.245Z,3.63
2023-03-16T10:18:41.611Z,3.20
2023-03-16T10:21:45.061Z,3.00
2023-03-16T10:25:00.675Z,3.20
2023-03-16T10:28:05.672Z,3.20
2023-03-16T10:31:11.819Z,3.00
2023-03-16T10:34:15.397Z,3.63
2023-03-16T10:37:18.588Z,3.20
2023-03-16T10:40:22.288Z,2.93
2023-03-16T10:43:27.246Z,3.53
2023-03-16T10:46:37.611Z,3.27
2023-03-16T10:49:44.393Z,3.40
2023-03-16T10:52:49.678Z,3.03
2023-03-16T10:55:59.886Z,3.63
2023-03-16T10:59:15.398Z,4.07
2023-03-16T11:02:20.814Z,4.70
2023-03-16T11:05:31.108Z,3.23
2023-03-16T11:08:36.510Z,3.30
2023-03-16T11:11:39.896Z,3.13
2023-03-16T11:14:46.690Z,3.20
2023-03-16T11:17:53.462Z,3.90
2023-03-16T11:20:57.206Z,3.10
2023-03-16T11:24:04.379Z,2.90
2023-03-16T11:27:15.750Z,3.00
2023-03-16T11:30:25.654Z,3.30
2023-03-16T11:33:31.119Z,3.13
2023-03-16T11:36:44.792Z,3.10
2023-03-16T11:40:07.547Z,3.07
2023-03-16T11:43:38.018Z,3.30
2023-03-16T11:46:53.243Z,3.20
2023-03-16T11:50:02.904Z,2.83
2023-03-16T11:53:16.077Z,2.90
2023-03-16T11:56:35.344Z,2.67
2023-03-16T12:00:01.218Z,2.90
2023-03-16T12:03:34.071Z,2.97
2023-03-16T12:06:53.809Z,2.90
2023-03-16T12:10:18.723Z,2.60
2023-03-16T12:13:36.577Z,2.77
2023-03-16T12:16:49.531Z,3.37
2023-03-16T12:19:58.799Z,2.93
2023-03-16T12:23:07.790Z,2.43
2023-03-16T12:26:14.533Z,2.70
2023-03-16T12:29:29.721Z,3.43
2023-03-16T12:32:45.269Z,2.60
2023-03-16T12:35:57.280Z,3.13
2023-03-16T12:39:05.857Z,2.53
2023-03-16T12:42:24.122Z,3.30
2023-03-16T12:45:34.469Z,2.67
2023-03-16T12:48:42.798Z,2.80
2023-03-16T12:51:59.535Z,3.33
2023-03-16T12:55:10.000Z,3.43
2023-03-16T12:58:15.574Z,2.83
2023-03-16T13:01:21.288Z,2.80
2023-03-16T13:04:33.744Z,2.80
2023-03-16T13:07:42.037Z,2.67
2023-03-16T13:11:01.994Z,2.87
2023-03-16T13:14:11.160Z,2.63
2023-03-16T13:17:31.530Z,2.77
2023-03-16T13:20:36.187Z,2.90
2023-03-16T13:23:55.608Z,3.43
2023-03-16T13:27:03.462Z,3.07
2023-03-16T13:30:19.393Z,2.90
2023-03-16T13:33:25.705Z,3.17
2023-03-16T13:36:34.026Z,2.83
2023-03-16T13:39:38.617Z,2.50
2023-03-16T13:42:41.987Z,2.90
2023-03-16T13:45:45.899Z,2.90
2023-03-16T13:48:52.331Z,2.77
2023-03-16T13:51:55.835Z,2.77
2023-03-16T13:55:02.630Z,2.70
2023-03-16T13:58:06.939Z,2.70
2023-03-16T14:01:21.030Z,2.90
2023-03-16T14:04:28.827Z,3.47
2023-03-16T14:07:38.669Z,3.30
2023-03-16T14:10:45.185Z,2.83
2023-03-16T14:13:54.811Z,2.50
2023-03-16T14:17:09.969Z,2.67
2023-03-16T14:20:21.334Z,3.00
2023-03-16T14:23:28.580Z,2.87
2023-03-16T14:26:42.615Z,3.40
2023-03-16T14:29:46.766Z,2.40
2023-03-16T14:32:58.516Z,2.77
2023-03-16T14:36:11.631Z,2.80
2023-03-16T14:39:20.627Z,2.83
2023-03-16T14:42:29.427Z,2.83
2023-03-16T14:45:35.410Z,2.93
2023-03-16T14:48:39.357Z,2.70
2023-03-16T14:51:42.925Z,3.30
2023-03-16T14:54:46.667Z,3.07
2023-03-16T14:57:51.756Z,3.10
2023-03-16T15:00:56.113Z,2.83
2023-03-16T15:03:59.467Z,2.50
2023-03-16T15:07:08.734Z,2.43
2023-03-16T15:10:23.591Z,2.53
2023-03-16T15:13:53.295Z,2.40
2023-03-16T15:16:56.826Z,2.80
2023-03-16T15:20:00.044Z,3.40
2023-03-16T15:23:05.023Z,2.90
2023-03-16T15:26:09.815Z,2.80
2023-03-16T15:29:14.816Z,3.53
2023-03-16T15:32:18.033Z,3.43
2023-03-16T15:35:21.957Z,3.13
2023-03-16T15:38:27.883Z,3.47
2023-03-16T15:41:41.446Z,3.20
2023-03-16T15:44:51.446Z,2.90
2023-03-16T15:47:55.321Z,2.73
2023-03-16T15:51:01.040Z,3.10
2023-03-16T15:54:07.746Z,3.03
2023-03-16T15:57:13.093Z,3.00
2023-03-16T16:00:30.143Z,4.13
2023-03-16T16:03:34.824Z,3.50
2023-03-16T16:06:38.061Z,3.33
2023-03-16T16:09:41.606Z,2.77
2023-03-16T16:12:51.238Z,3.53
2023-03-16T16:15:58.435Z,2.90
2023-03-16T16:19:01.647Z,3.20
2023-03-16T16:22:04.738Z,3.37
2023-03-16T16:25:09.459Z,3.13
2023-03-16T16:28:16.484Z,3.90
2023-03-16T16:31:22.844Z,3.50
2023-03-16T16:34:27.026Z,2.87
2023-03-16T16:37:30.536Z,2.80
2023-03-16T16:40:48.067Z,3.10
2023-03-16T16:43:57.062Z,3.30
2023-03-16T16:47:04.532Z,3.43
2023-03-16T16:50:16.610Z,3.17
2023-03-16T16:53:21.712Z,3.10
2023-03-16T16:56:30.769Z,2.97
2023-03-16T16:59:35.232Z,3.43
2023-03-16T17:02:47.596Z,3.20
2023-03-16T17:05:54.107Z,3.30
2023-03-16T17:08:57.461Z,3.80
2023-03-16T17:12:01.921Z,3.40
2023-03-16T17:15:19.318Z,3.63
2023-03-16T17:18:24.404Z,3.70
2023-03-16T17:21:31.082Z,3.63
2023-03-16T17:24:34.028Z,3.80
2023-03-16T17:27:37.841Z,3.50
2023-03-16T17:30:41.021Z,4.03
2023-03-16T17:33:46.030Z,3.73
2023-03-16T17:36:49.489Z,3.37
2023-03-16T17:39:54.201Z,4.27
2023-03-16T17:42:58.213Z,3.60
2023-03-16T17:46:04.873Z,3.40
2023-03-16T17:49:14.461Z,3.70
2023-03-16T17:52:19.676Z,3.83
2023-03-16T17:55:24.847Z,5.00
2023-03-16T17:58:31.350Z,4.50
2023-03-16T18:01:37.788Z,4.50
2023-03-16T18:04:42.351Z,4.27
2023-03-16T18:07:45.415Z,4.37
2023-03-16T18:10:52.099Z,3.40
2023-03-16T18:13:55.269Z,3.70
2023-03-16T18:16:59.003Z,3.40
2023-03-16T18:20:03.717Z,3.77
2023-03-16T18:23:16.302Z,4.20
2023-03-16T18:26:20.413Z,4.07
2023-03-16T18:29:24.140Z,3.40
2023-03-16T18:32:29.771Z,4.07
2023-03-16T18:35:36.487Z,3.50
2023-03-16T18:38:44.528Z,3.70
2023-03-16T18:41:48.225Z,3.83
2023-03-16T18:44:53.130Z,3.40
2023-03-16T18:47:58.124Z,4.00
2023-03-16T18:51:03.296Z,4.30
2023-03-16T18:54:18.935Z,4.80
2023-03-16T18:57:25.496Z,4.43
2023-03-16T19:00:29.926Z,4.67
2023-03-16T19:03:36.178Z,4.37
2023-03-16T19:06:40.813Z,4.40
2023-03-16T19:09:43.883Z,4.13
2023-03-16T19:12:46.905Z,4.20
2023-03-16T19:15:51.022Z,3.63
2023-03-16T19:18:54.227Z,3.63
2023-03-16T19:22:04.462Z,4.03
2023-03-16T19:25:08.708Z,4.67
2023-03-16T19:28:15.911Z,3.63
2023-03-16T19:31:22.343Z,4.07
2023-03-16T19:34:25.911Z,3.83
2023-03-16T19:37:30.692Z,4.20
2023-03-16T19:40:33.965Z,4.03
2023-03-16T19:43:37.461Z,3.53
2023-03-16T19:46:41.403Z,3.80
2023-03-16T19:49:44.660Z,4.03
2023-03-16T19:52:49.876Z,4.27
2023-03-16T19:55:54.762Z,4.37
2023-03-16T19:58:57.978Z,5.50
2023-03-16T20:02:01.445Z,4.67
2023-03-16T20:05:04.845Z,5.33
2023-03-16T20:08:20.242Z,5.27
2023-03-16T20:11:27.497Z,5.30
2023-03-16T20:14:34.020Z,4.57
2023-03-16T20:17:37.584Z,5.27
2023-03-16T20:20:42.082Z,4.50
2023-03-16T20:23:47.180Z,5.00
2023-03-16T20:26:53.530Z,4.47
2023-03-16T20:29:56.922Z,4.40
2023-03-16T20:33:00.287Z,4.30
2023-03-16T20:36:03.509Z,4.83
2023-03-16T20:39:08.068Z,4.90
2023-03-16T20:42:17.878Z,5.03
2023-03-16T20:45:24.818Z,5.17
2023-03-16T20:48:28.320Z,4.60
2023-03-16T20:51:31.314Z,5.70
2023-03-16T20:54:35.940Z,5.27
2023-03-16T20:57:40.274Z,5.23
2023-03-16T21:00:44.332Z,5.10
2023-03-16T21:03:48.563Z,5.00
2023-03-16T21:06:51.850Z,4.37
2023-03-16T21:09:56.708Z,4.87
2023-03-16T21:12:59.933Z,4.40
2023-03-16T21:16:04.600Z,4.70
2023-03-16T21:19:15.019Z,4.50
2023-03-16T21:22:27.090Z,4.43
2023-03-16T21:25:33.248Z,5.10
2023-03-16T21:28:37.034Z,4.80
2023-03-16T21:31:40.218Z,4.70
2023-03-16T21:34:46.108Z,5.07
2023-03-16T21:37:49.348Z,5.07
2023-03-16T21:40:54.301Z,4.83
2023-03-16T21:43:57.512Z,5.23
2023-03-16T21:47:00.535Z,5.83
2023-03-16T21:50:06.193Z,4.97
2023-03-16T21:53:20.261Z,5.17
2023-03-16T21:56:26.142Z,5.70
2023-03-16T21:59:29.110Z,5.70
2023-03-16T22:02:34.783Z,5.70
2023-03-16T22:05:40.089Z,5.60
2023-03-16T22:08:43.438Z,5.30
2023-03-16T22:11:48.130Z,5.57
2023-03-16T22:14:51.102Z,5.50
2023-03-16T22:17:55.411Z,5.70
2023-03-16T22:21:01.496Z,5.57
2023-03-16T22:24:05.915Z,5.80
2023-03-16T22:27:18.501Z,5.77
2023-03-16T22:30:23.909Z,6.90
2023-03-16T22:33:30.154Z,5.27
2023-03-16T22:36:35.137Z,5.57
2023-03-16T22:39:41.046Z,5.83
2023-03-16T22:42:45.978Z,5.43
2023-03-16T22:45:49.408Z,5.27
2023-03-16T22:48:53.286Z,4.93
2023-03-16T22:51:58.490Z,5.30
2023-03-16T22:55:03.961Z,6.10
2023-03-16T22:58:14.587Z,6.13
2023-03-16T23:01:19.510Z,5.30
2023-03-16T23:04:30.136Z,6.07
2023-03-16T23:07:33.601Z,5.90
2023-03-16T23:10:38.024Z,4.90
2023-03-16T23:13:42.758Z,5.33
2023-03-16T23:16:47.039Z,5.53
2023-03-16T23:19:50.311Z,5.53
2023-03-16T23:22:54.331Z,5.50
2023-03-16T23:25:57.758Z,5.37
2023-03-16T23:29:02.671Z,5.70
2023-03-16T23:32:07.230Z,5.93
2023-03-16T23:35:16.898Z,5.70
2023-03-16T23:38:20.097Z,5.23
2023-03-16T23:41:25.813Z,5.60
2023-03-16T23:44:31.527Z,5.20
2023-03-16T23:47:34.762Z,5.00
2023-03-16T23:50:38.768Z,5.20
2023-03-16T23:53:42.039Z,5.90
2023-03-16T23:56:45.855Z,6.17
2023-03-16T23:59:50.353Z,6.50
